createdAt,value
2022-10-07T00:01:35.056Z,238.93
2022-10-07T00:04:22.956Z,239.30
2022-10-07T00:07:10.903Z,252.13
2022-10-07T00:09:58.762Z,249.67
2022-10-07T00:12:46.648Z,255.33
2022-10-07T00:15:34.553Z,260.47
2022-10-07T00:18:23.734Z,253.23
2022-10-07T00:21:13.256Z,228.13
2022-10-07T00:24:01.768Z,248.60
2022-10-07T00:26:49.615Z,249.33
2022-10-07T00:29:37.475Z,255.77
2022-10-07T00:32:25.333Z,261.70
2022-10-07T00:35:16.436Z,250.37
2022-10-07T00:38:04.352Z,258.10
2022-10-07T00:40:52.260Z,250.27
2022-10-07T00:43:40.212Z,259.43
2022-10-07T00:46:32.345Z,260.30
2022-10-07T00:49:20.372Z,242.00
2022-10-07T00:52:10.910Z,240.67
2022-10-07T00:55:02.227Z,237.97
2022-10-07T00:57:52.426Z,256.10
2022-10-07T01:00:41.232Z,259.17
2022-10-07T01:03:29.690Z,236.10
2022-10-07T01:06:17.986Z,250.03
2022-10-07T01:09:08.700Z,266.80
2022-10-07T01:12:01.371Z,268.60
2022-10-07T01:15:01.055Z,256.93
2022-10-07T01:17:54.678Z,250.70
2022-10-07T01:20:47.666Z,254.50
2022-10-07T01:24:00.939Z,242.63
2022-10-07T01:26:57.312Z,249.37
2022-10-07T01:29:55.824Z,250.80
2022-10-07T01:32:48.244Z,245.67
2022-10-07T01:35:38.282Z,250.17
2022-10-07T01:38:33.674Z,250.70
2022-10-07T01:41:23.168Z,253.93
2022-10-07T01:44:13.768Z,247.83
2022-10-07T01:47:01.796Z,227.57
2022-10-07T01:49:49.780Z,226.13
2022-10-07T01:52:52.699Z,223.87
2022-10-07T01:55:52.751Z,219.53
2022-10-07T01:58:56.780Z,223.23
2022-10-07T02:01:53.993Z,220.27
2022-10-07T02:04:59.088Z,206.23
2022-10-07T02:08:02.362Z,202.97
2022-10-07T02:11:02.041Z,204.30
2022-10-07T02:14:01.311Z,206.67
2022-10-07T02:17:02.747Z,213.40
2022-10-07T02:19:56.401Z,212.87
2022-10-07T02:22:47.195Z,206.17
2022-10-07T02:25:39.653Z,218.77
2022-10-07T02:28:29.097Z,214.83
2022-10-07T02:31:21.381Z,198.23
2022-10-07T02:34:18.914Z,184.73
2022-10-07T02:37:15.503Z,194.13
2022-10-07T02:40:09.626Z,205.10
2022-10-07T02:43:05.245Z,184.90
2022-10-07T02:46:02.065Z,181.80
2022-10-07T02:48:58.755Z,194.37
2022-10-07T02:51:52.703Z,196.13
2022-10-07T02:54:45.008Z,204.43
2022-10-07T02:57:37.192Z,196.37
2022-10-07T03:00:25.531Z,182.63
2022-10-07T03:03:14.706Z,192.20
2022-10-07T03:06:19.892Z,186.30
2022-10-07T03:09:09.994Z,198.00
2022-10-07T03:11:58.268Z,200.87
2022-10-07T03:14:49.708Z,181.77
2022-10-07T03:17:39.603Z,187.17
2022-10-07T03:20:30.083Z,191.47
2022-10-07T03:23:18.036Z,194.80
2022-10-07T03:26:07.410Z,193.20
2022-10-07T03:28:55.340Z,194.43
2022-10-07T03:31:44.063Z,183.73
2022-10-07T03:34:32.510Z,196.67
2022-10-07T03:37:21.144Z,194.37
2022-10-07T03:40:10.049Z,198.17
2022-10-07T03:43:00.105Z,196.60
2022-10-07T03:45:51.317Z,181.30
2022-10-07T03:48:39.663Z,190.40
2022-10-07T03:51:28.353Z,197.00
2022-10-07T03:54:16.507Z,212.77
2022-10-07T03:57:24.767Z,185.30
2022-10-07T04:00:14.820Z,185.93
2022-10-07T04:03:02.860Z,188.13
2022-10-07T04:05:59.653Z,201.97
2022-10-07T04:08:52.741Z,193.30
2022-10-07T04:11:41.685Z,195.67
2022-10-07T04:14:30.385Z,188.97
2022-10-07T04:17:19.857Z,198.93
2022-10-07T04:20:09.234Z,199.10
2022-10-07T04:22:57.289Z,194.77
2022-10-07T04:25:46.644Z,186.23
2022-10-07T04:28:39.259Z,196.53
2022-10-07T04:31:33.444Z,181.50
2022-10-07T04:34:26.703Z,196.57
2022-10-07T04:37:15.305Z,183.57
2022-10-07T04:40:03.318Z,182.57
2022-10-07T04:43:11.806Z,195.20
2022-10-07T04:46:05.435Z,194.50
2022-10-07T04:48:55.474Z,189.93
2022-10-07T04:51:48.294Z,203.67
2022-10-07T04:54:39.328Z,189.70
2022-10-07T04:57:27.407Z,187.13
2022-10-07T05:00:15.665Z,182.07
2022-10-07T05:03:04.397Z,201.17
2022-10-07T05:05:54.099Z,204.57
2022-10-07T05:08:45.247Z,208.23
2022-10-07T05:11:34.662Z,211.40
2022-10-07T05:14:29.441Z,181.60
2022-10-07T05:17:20.153Z,189.17
2022-10-07T05:20:09.079Z,193.10
2022-10-07T05:22:58.077Z,206.93
2022-10-07T05:25:48.284Z,210.07
2022-10-07T05:28:36.533Z,201.27
2022-10-07T05:31:25.796Z,200.07
2022-10-07T05:34:16.349Z,204.77
2022-10-07T05:37:04.320Z,209.47
2022-10-07T05:39:52.964Z,197.93
2022-10-07T05:42:43.369Z,220.83
2022-10-07T05:45:31.950Z,209.43
2022-10-07T05:48:21.647Z,197.63
2022-10-07T05:51:09.744Z,205.10
2022-10-07T05:53:58.201Z,208.30
2022-10-07T05:56:53.873Z,208.97
2022-10-07T05:59:44.116Z,194.63
2022-10-07T06:02:32.546Z,217.67
2022-10-07T06:05:00.929Z,212.23
2022-10-07T06:07:29.746Z,218.60
2022-10-07T06:10:16.989Z,238.50
2022-10-07T06:13:02.254Z,198.03
2022-10-07T06:15:32.423Z,202.17
2022-10-07T06:18:00.332Z,210.33
2022-10-07T06:20:28.983Z,226.40
2022-10-07T06:22:58.879Z,233.87
2022-10-07T06:25:27.864Z,226.67
2022-10-07T06:27:58.091Z,224.87
2022-10-07T06:30:27.571Z,227.33
2022-10-07T06:32:57.352Z,224.93
2022-10-07T06:35:25.403Z,214.93
2022-10-07T06:37:54.856Z,210.83
2022-10-07T06:40:22.485Z,218.70
2022-10-07T06:42:50.441Z,225.23
2022-10-07T06:45:44.279Z,203.20
2022-10-07T06:48:14.883Z,222.60
2022-10-07T06:50:50.789Z,203.83
2022-10-07T06:53:18.643Z,208.10
2022-10-07T06:55:47.470Z,224.80
2022-10-07T06:58:15.746Z,223.00
2022-10-07T07:00:44.322Z,215.83
2022-10-07T07:03:12.188Z,210.60
2022-10-07T07:05:44.617Z,227.43
2022-10-07T07:08:17.194Z,206.80
2022-10-07T07:10:46.251Z,227.07
2022-10-07T07:13:15.420Z,209.40
2022-10-07T07:15:43.528Z,230.20
2022-10-07T07:18:11.683Z,215.10
2022-10-07T07:20:41.449Z,215.43
2022-10-07T07:23:10.955Z,224.97
2022-10-07T07:25:44.146Z,225.60
2022-10-07T07:28:11.907Z,218.90
2022-10-07T07:30:40.867Z,229.77
2022-10-07T07:33:11.523Z,239.27
2022-10-07T07:35:43.449Z,225.50
2022-10-07T07:38:11.686Z,251.10
2022-10-07T07:40:40.634Z,239.77
2022-10-07T07:43:09.410Z,233.00
2022-10-07T07:45:37.147Z,247.03
2022-10-07T07:48:05.530Z,258.67
2022-10-07T07:50:35.509Z,234.20
2022-10-07T07:53:05.654Z,247.53
2022-10-07T07:55:33.618Z,254.23
2022-10-07T07:58:01.593Z,251.57
2022-10-07T08:00:30.294Z,254.20
2022-10-07T08:03:04.126Z,252.87
2022-10-07T08:05:35.670Z,244.70
2022-10-07T08:08:05.348Z,261.37
2022-10-07T08:10:33.463Z,265.40
2022-10-07T08:13:01.127Z,265.73
2022-10-07T08:15:28.888Z,258.13
2022-10-07T08:17:57.083Z,276.27
2022-10-07T08:20:24.763Z,246.50
2022-10-07T08:22:56.900Z,255.57
2022-10-07T08:25:29.389Z,269.70
2022-10-07T08:27:58.835Z,262.53
2022-10-07T08:30:27.218Z,266.70
2022-10-07T08:32:59.014Z,277.97
2022-10-07T08:35:28.756Z,283.42
2022-10-07T08:37:57.093Z,299.25
2022-10-07T08:40:24.728Z,292.70
2022-10-07T08:42:54.540Z,310.27
2022-10-07T08:45:29.344Z,302.25
2022-10-07T08:47:57.794Z,334.90
2022-10-07T08:50:30.907Z,324.17
2022-10-07T08:53:02.935Z,329.75
2022-10-07T08:55:37.255Z,334.02
2022-10-07T08:58:26.394Z,318.15
2022-10-07T09:01:00.213Z,328.73
2022-10-07T09:03:39.938Z,341.48
2022-10-07T09:06:14.100Z,328.85
2022-10-07T09:08:47.275Z,328.15
2022-10-07T09:11:25.412Z,328.85
2022-10-07T09:13:59.155Z,324.08
2022-10-07T09:16:31.279Z,341.30
2022-10-07T09:19:01.648Z,334.50
2022-10-07T09:21:37.355Z,331.42
2022-10-07T09:24:18.475Z,350.77
2022-10-07T09:26:46.353Z,343.70
2022-10-07T09:29:17.013Z,329.17
2022-10-07T09:31:44.717Z,329.83
2022-10-07T09:34:23.179Z,360.52
2022-10-07T09:37:19.016Z,351.42
2022-10-07T09:39:48.297Z,332.38
2022-10-07T09:42:29.482Z,344.17
2022-10-07T09:45:00.986Z,359.02
2022-10-07T09:47:32.783Z,351.90
2022-10-07T09:50:00.548Z,374.13
2022-10-07T09:52:29.424Z,360.70
2022-10-07T09:54:59.591Z,379.45
2022-10-07T09:57:30.941Z,383.10
2022-10-07T10:00:22.230Z,358.85
2022-10-07T10:02:52.999Z,350.15
2022-10-07T10:05:24.943Z,346.25
2022-10-07T10:07:59.475Z,352.45
2022-10-07T10:10:29.762Z,359.00
2022-10-07T10:12:59.561Z,367.95
2022-10-07T10:15:39.532Z,367.17
2022-10-07T10:18:28.456Z,385.30
2022-10-07T10:20:56.360Z,372.02
2022-10-07T10:23:28.898Z,402.33
2022-10-07T10:26:27.182Z,393.45
2022-10-07T10:29:05.569Z,370.33
2022-10-07T10:31:49.473Z,390.05
2022-10-07T10:34:32.190Z,394.08
2022-10-07T10:37:04.862Z,387.70
2022-10-07T10:39:47.498Z,398.75
2022-10-07T10:42:22.598Z,385.33
2022-10-07T10:45:03.661Z,369.77
2022-10-07T10:47:45.422Z,369.73
2022-10-07T10:50:23.649Z,385.73
2022-10-07T10:53:03.817Z,366.77
2022-10-07T10:55:54.461Z,368.73
2022-10-07T10:58:31.984Z,359.13
2022-10-07T11:01:11.832Z,360.42
2022-10-07T11:04:16.912Z,361.95
2022-10-07T11:06:51.172Z,355.80
2022-10-07T11:09:29.911Z,340.70
2022-10-07T11:12:01.686Z,366.30
2022-10-07T11:14:31.605Z,352.23
2022-10-07T11:17:04.897Z,362.55
2022-10-07T11:19:39.245Z,363.42
2022-10-07T11:22:14.586Z,367.27
2022-10-07T11:24:46.531Z,353.58
2022-10-07T11:27:19.760Z,374.80
2022-10-07T11:29:52.549Z,343.08
2022-10-07T11:32:25.444Z,350.88
2022-10-07T11:35:00.510Z,348.40
2022-10-07T11:37:32.394Z,326.08
2022-10-07T11:40:00.273Z,320.65
2022-10-07T11:42:29.873Z,299.25
2022-10-07T11:45:02.629Z,312.10
2022-10-07T11:47:35.402Z,300.90
2022-10-07T11:50:10.674Z,302.15
2022-10-07T11:52:42.668Z,294.08
2022-10-07T11:55:17.167Z,307.52
2022-10-07T11:57:54.143Z,296.17
2022-10-07T12:00:26.976Z,279.67
2022-10-07T12:02:56.133Z,275.98
2022-10-07T12:06:06.917Z,279.63
2022-10-07T12:08:38.397Z,287.05
2022-10-07T12:11:42.942Z,279.60
2022-10-07T12:14:42.524Z,274.25
2022-10-07T12:17:30.286Z,280.65
2022-10-07T12:20:37.143Z,270.88
2022-10-07T12:23:41.274Z,264.23
2022-10-07T12:26:51.479Z,284.20
2022-10-07T12:29:36.249Z,278.15
2022-10-07T12:32:04.742Z,273.50
2022-10-07T12:34:39.691Z,270.20
2022-10-07T12:37:45.009Z,278.17
2022-10-07T12:40:25.897Z,282.38
2022-10-07T12:43:00.217Z,269.67
2022-10-07T12:45:31.965Z,279.17
2022-10-07T12:48:01.730Z,294.15
2022-10-07T12:50:31.777Z,286.73
2022-10-07T12:53:03.564Z,286.70
2022-10-07T12:55:37.266Z,300.40
2022-10-07T12:58:34.188Z,291.45
2022-10-07T13:01:16.553Z,251.73
2022-10-07T13:04:06.945Z,293.85
2022-10-07T13:07:22.798Z,296.27
2022-10-07T13:10:19.056Z,268.98
2022-10-07T13:12:51.756Z,293.90
2022-10-07T13:15:28.905Z,285.27
2022-10-07T13:18:06.254Z,290.77
2022-10-07T13:20:47.484Z,308.65
2022-10-07T13:23:17.826Z,280.35
2022-10-07T13:25:49.555Z,281.67
2022-10-07T13:28:22.316Z,302.85
2022-10-07T13:30:51.587Z,302.88
2022-10-07T13:33:27.671Z,296.83
2022-10-07T13:36:13.805Z,297.73
2022-10-07T13:38:41.528Z,290.73
2022-10-07T13:41:14.805Z,312.02
2022-10-07T13:43:45.179Z,303.63
2022-10-07T13:46:14.415Z,311.30
2022-10-07T13:48:45.776Z,297.15
2022-10-07T13:51:20.553Z,309.35
2022-10-07T13:53:53.980Z,293.45
2022-10-07T13:56:25.114Z,309.55
2022-10-07T13:58:55.338Z,305.65
2022-10-07T14:01:27.197Z,292.33
2022-10-07T14:04:10.420Z,297.05
2022-10-07T14:06:45.773Z,297.75
2022-10-07T14:09:22.729Z,308.00
2022-10-07T14:11:55.044Z,311.08
2022-10-07T14:14:28.189Z,311.92
2022-10-07T14:16:59.259Z,323.88
2022-10-07T14:19:31.816Z,306.77
2022-10-07T14:22:02.937Z,306.25
2022-10-07T14:24:31.716Z,286.45
2022-10-07T14:27:00.444Z,307.95
2022-10-07T14:29:38.589Z,311.17
2022-10-07T14:32:35.231Z,306.08
2022-10-07T14:35:19.320Z,298.38
2022-10-07T14:37:47.354Z,290.15
2022-10-07T14:40:19.319Z,318.27
2022-10-07T14:42:47.821Z,329.25
2022-10-07T14:45:18.545Z,311.35
2022-10-07T14:47:46.666Z,312.35
2022-10-07T14:50:14.994Z,318.70
2022-10-07T14:52:46.910Z,317.80
2022-10-07T14:55:19.335Z,310.02
2022-10-07T14:57:48.138Z,328.63
2022-10-07T15:00:20.232Z,301.80
2022-10-07T15:02:50.203Z,296.10
2022-10-07T15:05:18.793Z,293.42
2022-10-07T15:07:46.899Z,309.40
2022-10-07T15:10:16.969Z,324.65
2022-10-07T15:12:45.128Z,324.98
2022-10-07T15:15:13.911Z,341.08
2022-10-07T15:17:44.246Z,341.60
2022-10-07T15:20:14.244Z,335.48
2022-10-07T15:22:42.674Z,363.45
2022-10-07T15:25:12.340Z,337.27
2022-10-07T15:27:39.990Z,340.83
2022-10-07T15:30:08.923Z,347.00
2022-10-07T15:32:36.801Z,350.77
2022-10-07T15:35:07.447Z,330.17
2022-10-07T15:37:35.084Z,354.30
2022-10-07T15:40:02.732Z,362.88
2022-10-07T15:42:30.397Z,378.02
2022-10-07T15:44:58.249Z,380.35
2022-10-07T15:47:28.089Z,385.15
2022-10-07T15:49:55.690Z,362.85
2022-10-07T15:52:25.052Z,361.02
2022-10-07T15:54:52.720Z,364.58
2022-10-07T15:57:22.334Z,372.50
2022-10-07T15:59:49.919Z,377.23
2022-10-07T16:02:21.233Z,384.77
2022-10-07T16:04:48.980Z,395.63
2022-10-07T16:07:17.225Z,378.73
2022-10-07T16:09:46.165Z,376.00
2022-10-07T16:12:14.114Z,400.33
2022-10-07T16:14:41.746Z,398.45
2022-10-07T16:17:09.384Z,427.35
2022-10-07T16:19:37.139Z,433.55
2022-10-07T16:22:04.755Z,432.92
2022-10-07T16:24:35.306Z,438.20
2022-10-07T16:27:04.710Z,440.75
2022-10-07T16:29:50.079Z,446.05
2022-10-07T16:32:17.716Z,443.77
2022-10-07T16:34:46.793Z,451.23
2022-10-07T16:37:15.224Z,439.92
2022-10-07T16:39:42.979Z,447.15
2022-10-07T16:42:12.139Z,477.30
2022-10-07T16:44:39.784Z,480.83
2022-10-07T16:47:07.455Z,464.00
2022-10-07T16:49:36.332Z,483.90
2022-10-07T16:52:04.370Z,461.80
2022-10-07T16:54:35.299Z,484.67
2022-10-07T16:57:03.023Z,472.25
2022-10-07T16:59:32.104Z,481.77
2022-10-07T17:02:02.510Z,473.20
2022-10-07T17:04:30.370Z,472.15
2022-10-07T17:06:58.180Z,467.08
2022-10-07T17:09:25.795Z,458.20
2022-10-07T17:11:53.469Z,493.90
2022-10-07T17:14:22.846Z,469.98
2022-10-07T17:16:54.161Z,475.83
2022-10-07T17:19:24.388Z,471.48
2022-10-07T17:21:53.176Z,482.73
2022-10-07T17:24:22.779Z,467.85
2022-10-07T17:26:52.354Z,433.63
2022-10-07T17:29:21.950Z,447.05
2022-10-07T17:31:50.623Z,466.73
2022-10-07T17:34:21.269Z,462.45
2022-10-07T17:36:49.505Z,458.23
2022-10-07T17:39:18.954Z,431.15
2022-10-07T17:41:46.802Z,430.20
2022-10-07T17:44:14.677Z,457.48
2022-10-07T17:46:42.382Z,438.52
2022-10-07T17:49:13.070Z,438.85
2022-10-07T17:51:43.796Z,439.80
2022-10-07T17:54:13.446Z,442.25
2022-10-07T17:56:41.245Z,429.67
2022-10-07T17:59:08.933Z,427.63
2022-10-07T18:01:37.598Z,419.98
2022-10-07T18:04:06.706Z,431.85
2022-10-07T18:06:36.347Z,415.98
2022-10-07T18:09:07.766Z,458.15
2022-10-07T18:11:53.211Z,416.35
2022-10-07T18:14:39.272Z,407.17
2022-10-07T18:17:08.712Z,433.75
2022-10-07T18:19:36.766Z,426.20
2022-10-07T18:22:04.507Z,420.70
2022-10-07T18:24:33.502Z,418.60
2022-10-07T18:27:02.035Z,407.05
2022-10-07T18:29:31.473Z,414.10
2022-10-07T18:31:59.557Z,424.23
2022-10-07T18:34:27.174Z,422.00
2022-10-07T18:36:57.013Z,410.20
2022-10-07T18:39:27.189Z,407.83
2022-10-07T18:41:56.585Z,421.80
2022-10-07T18:44:24.314Z,411.17
2022-10-07T18:46:52.249Z,394.67
2022-10-07T18:49:19.854Z,414.20
2022-10-07T18:51:50.303Z,411.65
2022-10-07T18:54:17.969Z,389.05
2022-10-07T18:56:47.705Z,407.60
2022-10-07T18:59:17.660Z,396.00
2022-10-07T19:01:50.127Z,396.10
2022-10-07T19:04:19.809Z,388.83
2022-10-07T19:06:47.579Z,368.15
2022-10-07T19:09:17.034Z,399.08
2022-10-07T19:11:45.009Z,424.40
2022-10-07T19:14:12.080Z,389.27
2022-10-07T19:16:43.586Z,394.50
2022-10-07T19:19:13.759Z,396.85
2022-10-07T19:21:41.849Z,379.90
2022-10-07T19:24:09.467Z,394.58
2022-10-07T19:26:42.229Z,386.17
2022-10-07T19:29:10.739Z,382.63
2022-10-07T19:31:40.475Z,376.73
2022-10-07T19:34:11.450Z,382.60
2022-10-07T19:36:42.328Z,361.92
2022-10-07T19:39:11.291Z,393.52
2022-10-07T19:41:38.997Z,393.75
2022-10-07T19:44:06.792Z,393.83
2022-10-07T19:46:34.500Z,350.60
2022-10-07T19:49:03.509Z,382.75
2022-10-07T19:51:34.074Z,359.38
2022-10-07T19:54:03.374Z,385.40
2022-10-07T19:56:32.857Z,389.92
2022-10-07T19:59:05.342Z,376.25
2022-10-07T20:01:35.148Z,373.35
2022-10-07T20:04:23.130Z,387.15
2022-10-07T20:07:12.472Z,364.38
2022-10-07T20:10:00.461Z,370.02
2022-10-07T20:12:48.563Z,354.42
2022-10-07T20:15:37.104Z,376.65
2022-10-07T20:18:25.093Z,376.42
2022-10-07T20:21:16.005Z,397.13
2022-10-07T20:24:07.370Z,382.08
2022-10-07T20:26:55.322Z,379.90
2022-10-07T20:32:37.285Z,366.30
2022-10-07T20:35:25.220Z,382.13
2022-10-07T20:38:13.114Z,366.60
2022-10-07T20:41:18.946Z,369.67
2022-10-07T20:44:08.023Z,398.05
2022-10-07T20:46:57.173Z,382.45
2022-10-07T20:49:48.437Z,394.70
2022-10-07T20:52:37.176Z,387.95
2022-10-07T20:55:25.099Z,390.35
2022-10-07T20:58:14.866Z,387.23
2022-10-07T21:01:08.506Z,394.58
2022-10-07T21:03:56.880Z,390.00
2022-10-07T21:06:46.147Z,382.60
2022-10-07T21:09:36.477Z,392.35
2022-10-07T21:12:24.576Z,372.70
2022-10-07T21:15:12.553Z,371.38
2022-10-07T21:18:00.469Z,365.98
2022-10-07T21:20:56.324Z,379.60
2022-10-07T21:23:46.447Z,352.95
2022-10-07T21:26:34.837Z,375.45
2022-10-07T21:29:22.975Z,384.60
2022-10-07T21:32:11.645Z,393.63
2022-10-07T21:34:59.585Z,403.77
2022-10-07T21:37:47.493Z,358.00
2022-10-07T21:40:36.744Z,383.73
2022-10-07T21:43:24.645Z,365.77
2022-10-07T21:46:12.618Z,390.75
2022-10-07T21:49:00.719Z,390.67
2022-10-07T21:51:48.626Z,379.88
2022-10-07T21:54:37.407Z,369.33
2022-10-07T21:57:26.691Z,359.73
2022-10-07T22:00:16.390Z,354.77
2022-10-07T22:03:04.739Z,376.30
2022-10-07T22:05:52.711Z,370.55
2022-10-07T22:08:40.878Z,366.95
2022-10-07T22:11:28.772Z,366.83
2022-10-07T22:14:18.690Z,357.27
2022-10-07T22:17:06.656Z,361.67
2022-10-07T22:19:54.768Z,339.90
2022-10-07T22:22:42.888Z,373.00
2022-10-07T22:25:30.913Z,397.25
2022-10-07T22:28:18.885Z,373.65
2022-10-07T22:31:10.678Z,382.48
2022-10-07T22:34:00.297Z,364.88
2022-10-07T22:36:48.190Z,379.63
2022-10-07T22:39:36.095Z,367.52
2022-10-07T22:42:24.165Z,389.77
2022-10-07T22:45:12.656Z,370.85
2022-10-07T22:48:02.115Z,372.38
2022-10-07T22:50:50.812Z,376.77
2022-10-07T22:53:40.817Z,402.65
2022-10-07T22:56:29.384Z,385.52
2022-10-07T22:59:17.464Z,391.92
2022-10-07T23:02:05.442Z,408.85
2022-10-07T23:04:54.726Z,404.85
2022-10-07T23:07:42.609Z,384.80
2022-10-07T23:10:30.569Z,399.83
2022-10-07T23:13:18.470Z,401.45
2022-10-07T23:16:11.859Z,426.00
2022-10-07T23:19:00.059Z,400.98
2022-10-07T23:21:49.532Z,378.70
2022-10-07T23:24:37.408Z,421.08
2022-10-07T23:27:25.353Z,367.02
2022-10-07T23:30:13.736Z,416.13
2022-10-07T23:33:01.668Z,386.02
2022-10-07T23:35:49.615Z,388.92
2022-10-07T23:38:40.699Z,383.48
2022-10-07T23:41:32.331Z,416.17
2022-10-07T23:44:20.220Z,451.23
2022-10-07T23:47:08.130Z,393.65
2022-10-07T23:49:56.099Z,389.67
2022-10-07T23:52:44.203Z,394.55
2022-10-07T23:55:33.652Z,392.50
2022-10-07T23:58:23.573Z,366.52
